sensor_id;sensor_type;location;lat;lon;timestamp;pressure;altitude;pressure_sealevel;temperature;humidity
75933;BME280;64803;52.356;5.310;2023-05-10T00:00:41;101178.06;;;12.26;100.00
75933;BME280;64803;52.356;5.310;2023-05-10T00:03:07;101175.19;;;12.28;100.00
75933;BME280;64803;52.356;5.310;2023-05-10T00:05:33;101169.28;;;12.32;100.00
75933;BME280;64803;52.356;5.310;2023-05-10T00:07:59;101173.25;;;12.36;100.00
75933;BME280;64803;52.356;5.310;2023-05-10T00:10:25;101166.50;;;12.40;100.00
75933;BME280;64803;52.356;5.310;2023-05-10T00:12:51;101165.47;;;12.41;100.00
75933;BME280;64803;52.356;5.310;2023-05-10T00:15:17;101165.47;;;12.41;100.00
75933;BME280;64803;52.356;5.310;2023-05-10T00:17:43;101160.72;;;12.43;100.00
75933;BME280;64803;52.356;5.310;2023-05-10T00:20:09;101159.72;;;12.44;100.00
75933;BME280;64803;52.356;5.310;2023-05-10T00:22:36;101154.88;;;12.40;100.00
75933;BME280;64803;52.356;5.310;2023-05-10T00:25:02;101154.59;;;12.35;100.00
75933;BME280;64803;52.356;5.310;2023-05-10T00:27:28;101162.84;;;12.33;100.00
75933;BME280;64803;52.356;5.310;2023-05-10T00:29:54;101160.88;;;12.27;100.00
75933;BME280;64803;52.356;5.310;2023-05-10T00:32:20;101151.13;;;12.26;100.00
75933;BME280;64803;52.356;5.310;2023-05-10T00:34:46;101155.66;;;12.26;100.00
75933;BME280;64803;52.356;5.310;2023-05-10T00:37:12;101157.53;;;12.25;100.00
75933;BME280;64803;52.356;5.310;2023-05-10T00:39:38;101153.34;;;12.23;100.00
75933;BME280;64803;52.356;5.310;2023-05-10T00:42:04;101155.84;;;12.24;100.00
75933;BME280;64803;52.356;5.310;2023-05-10T00:44:31;101161.91;;;12.26;100.00
75933;BME280;64803;52.356;5.310;2023-05-10T00:46:57;101152.78;;;12.27;100.00
75933;BME280;64803;52.356;5.310;2023-05-10T00:49:24;101149.94;;;12.29;100.00
75933;BME280;64803;52.356;5.310;2023-05-10T00:51:50;101152.44;;;12.30;100.00
75933;BME280;64803;52.356;5.310;2023-05-10T00:54:17;101157.34;;;12.27;100.00
75933;BME280;64803;52.356;5.310;2023-05-10T00:56:43;101139.78;;;12.16;100.00
75933;BME280;64803;52.356;5.310;2023-05-10T00:59:17;101125.00;;;12.12;100.00
75933;BME280;64803;52.356;5.310;2023-05-10T01:01:44;101162.66;;;12.35;100.00
75933;BME280;64803;52.356;5.310;2023-05-10T01:04:13;101160.16;;;12.33;100.00
75933;BME280;64803;52.356;5.310;2023-05-10T01:06:40;101143.91;;;12.27;100.00
75933;BME280;64803;52.356;5.310;2023-05-10T01:09:06;101159.44;;;12.39;100.00
75933;BME280;64803;52.356;5.310;2023-05-10T01:11:34;101159.88;;;12.43;100.00
75933;BME280;64803;52.356;5.310;2023-05-10T01:14:02;101157.19;;;12.43;100.00
75933;BME280;64803;52.356;5.310;2023-05-10T01:16:32;101170.13;;;12.48;100.00
75933;BME280;64803;52.356;5.310;2023-05-10T01:18:59;101170.97;;;12.48;100.00
75933;BME280;64803;52.356;5.310;2023-05-10T01:35:01;101160.50;;;12.53;100.00
75933;BME280;64803;52.356;5.310;2023-05-10T01:37:33;101159.94;;;12.58;100.00
75933;BME280;64803;52.356;5.310;2023-05-10T01:40:08;101160.59;;;12.60;100.00
75933;BME280;64803;52.356;5.310;2023-05-10T01:42:42;101165.13;;;12.59;100.00
75933;BME280;64803;52.356;5.310;2023-05-10T01:45:23;101161.63;;;12.59;100.00
75933;BME280;64803;52.356;5.310;2023-05-10T01:48:05;101167.63;;;12.61;100.00
75933;BME280;64803;52.356;5.310;2023-05-10T01:50:34;101169.69;;;12.59;100.00
75933;BME280;64803;52.356;5.310;2023-05-10T01:53:01;101158.25;;;12.57;100.00
75933;BME280;64803;52.356;5.310;2023-05-10T01:55:30;101160.78;;;12.58;100.00
75933;BME280;64803;52.356;5.310;2023-05-10T01:58:22;101167.00;;;12.59;100.00
75933;BME280;64803;52.356;5.310;2023-05-10T02:00:51;101169.31;;;12.62;100.00
75933;BME280;64803;52.356;5.310;2023-05-10T02:03:20;101166.63;;;12.62;100.00
75933;BME280;64803;52.356;5.310;2023-05-10T02:05:48;101171.53;;;12.58;100.00
75933;BME280;64803;52.356;5.310;2023-05-10T02:08:17;101168.38;;;12.55;100.00
75933;BME280;64803;52.356;5.310;2023-05-10T02:10:45;101173.59;;;12.56;100.00
75933;BME280;64803;52.356;5.310;2023-05-10T02:13:11;101176.84;;;12.52;100.00
75933;BME280;64803;52.356;5.310;2023-05-10T02:15:39;101169.56;;;12.52;100.00
75933;BME280;64803;52.356;5.310;2023-05-10T02:18:07;101181.00;;;12.54;100.00
75933;BME280;64803;52.356;5.310;2023-05-10T02:20:35;101182.69;;;12.55;100.00
75933;BME280;64803;52.356;5.310;2023-05-10T02:23:03;101182.69;;;12.55;100.00
75933;BME280;64803;52.356;5.310;2023-05-10T02:25:31;101172.44;;;12.51;100.00
75933;BME280;64803;52.356;5.310;2023-05-10T02:27:57;101189.66;;;12.50;100.00
75933;BME280;64803;52.356;5.310;2023-05-10T02:30:26;101188.81;;;12.49;100.00
75933;BME280;64803;52.356;5.310;2023-05-10T02:32:52;101196.31;;;12.54;100.00
75933;BME280;64803;52.356;5.310;2023-05-10T02:35:19;101193.47;;;12.55;100.00
75933;BME280;64803;52.356;5.310;2023-05-10T02:37:46;101195.31;;;12.55;100.00
75933;BME280;64803;52.356;5.310;2023-05-10T02:40:13;101190.59;;;12.57;100.00
75933;BME280;64803;52.356;5.310;2023-05-10T02:42:42;101197.34;;;12.53;100.00
75933;BME280;64803;52.356;5.310;2023-05-10T02:45:15;101186.75;;;12.51;100.00
75933;BME280;64803;52.356;5.310;2023-05-10T02:47:43;101191.03;;;12.45;100.00
75933;BME280;64803;52.356;5.310;2023-05-10T02:50:09;101188.31;;;12.45;100.00
75933;BME280;64803;52.356;5.310;2023-05-10T02:52:39;101186.66;;;12.44;100.00
75933;BME280;64803;52.356;5.310;2023-05-10T02:55:07;101187.84;;;12.42;100.00
75933;BME280;64803;52.356;5.310;2023-05-10T02:57:40;101145.88;;;12.10;100.00
75933;BME280;64803;52.356;5.310;2023-05-10T03:00:07;101190.44;;;12.35;100.00
75933;BME280;64803;52.356;5.310;2023-05-10T03:02:34;101199.03;;;12.31;100.00
75933;BME280;64803;52.356;5.310;2023-05-10T03:05:01;101202.22;;;12.34;100.00
75933;BME280;64803;52.356;5.310;2023-05-10T03:07:27;101206.78;;;12.34;100.00
75933;BME280;64803;52.356;5.310;2023-05-10T03:09:53;101205.56;;;12.36;100.00
75933;BME280;64803;52.356;5.310;2023-05-10T03:15:47;101205.94;;;12.33;100.00
75933;BME280;64803;52.356;5.310;2023-05-10T03:18:34;101205.28;;;12.31;100.00
75933;BME280;64803;52.356;5.310;2023-05-10T03:21:04;101207.69;;;12.26;100.00
75933;BME280;64803;52.356;5.310;2023-05-10T03:25:59;101178.25;;;12.02;100.00
75933;BME280;64803;52.356;5.310;2023-05-10T03:28:26;101199.50;;;12.20;100.00
75933;BME280;64803;52.356;5.310;2023-05-10T03:30:55;101206.78;;;12.11;100.00
75933;BME280;64803;52.356;5.310;2023-05-10T03:33:22;101211.50;;;12.09;100.00
75933;BME280;64803;52.356;5.310;2023-05-10T03:35:49;101212.88;;;12.05;100.00
75933;BME280;64803;52.356;5.310;2023-05-10T03:38:15;101218.44;;;12.04;100.00
75933;BME280;64803;52.356;5.310;2023-05-10T03:40:41;101188.09;;;11.87;100.00
75933;BME280;64803;52.356;5.310;2023-05-10T03:43:08;101219.28;;;12.04;100.00
75933;BME280;64803;52.356;5.310;2023-05-10T03:45:34;101214.91;;;12.03;100.00
75933;BME280;64803;52.356;5.310;2023-05-10T03:48:00;101216.94;;;12.01;100.00
75933;BME280;64803;52.356;5.310;2023-05-10T03:50:26;101224.19;;;12.01;100.00
75933;BME280;64803;52.356;5.310;2023-05-10T03:52:53;101224.38;;;11.99;100.00
75933;BME280;64803;52.356;5.310;2023-05-10T03:55:19;101221.03;;;11.97;100.00
75933;BME280;64803;52.356;5.310;2023-05-10T03:57:45;101219.81;;;12.00;100.00
75933;BME280;64803;52.356;5.310;2023-05-10T04:00:11;101221.03;;;11.97;100.00
75933;BME280;64803;52.356;5.310;2023-05-10T04:02:41;101204.25;;;11.87;100.00
75933;BME280;64803;52.356;5.310;2023-05-10T04:05:10;101229.09;;;11.97;100.00
75933;BME280;64803;52.356;5.310;2023-05-10T04:07:36;101227.75;;;11.93;100.00
75933;BME280;64803;52.356;5.310;2023-05-10T04:10:02;101226.72;;;11.94;100.00
75933;BME280;64803;52.356;5.310;2023-05-10T04:12:28;101233.81;;;11.95;100.00
75933;BME280;64803;52.356;5.310;2023-05-10T04:14:54;101222.00;;;11.96;100.00
75933;BME280;64803;52.356;5.310;2023-05-10T04:17:20;101234.66;;;11.96;100.00
75933;BME280;64803;52.356;5.310;2023-05-10T04:19:46;101232.78;;;11.96;100.00
75933;BME280;64803;52.356;5.310;2023-05-10T04:22:12;101230.09;;;11.96;100.00
75933;BME280;64803;52.356;5.310;2023-05-10T04:24:38;101227.06;;;11.99;100.00
75933;BME280;64803;52.356;5.310;2023-05-10T04:27:04;101229.75;;;11.99;100.00
75933;BME280;64803;52.356;5.310;2023-05-10T04:29:30;101236.81;;;12.00;100.00
75933;BME280;64803;52.356;5.310;2023-05-10T04:31:56;101229.09;;;11.97;100.00
75933;BME280;64803;52.356;5.310;2023-05-10T04:34:22;101231.78;;;11.97;100.00
75933;BME280;64803;52.356;5.310;2023-05-10T04:36:48;101222.75;;;11.90;100.00
75933;BME280;64803;52.356;5.310;2023-05-10T04:39:14;101241.00;;;12.03;100.00
75933;BME280;64803;52.356;5.310;2023-05-10T04:41:40;101239.50;;;12.00;100.00
75933;BME280;64803;52.356;5.310;2023-05-10T04:44:06;101229.41;;;12.02;100.00
75933;BME280;64803;52.356;5.310;2023-05-10T04:46:32;101239.31;;;12.02;100.00
75933;BME280;64803;52.356;5.310;2023-05-10T04:48:58;101240.16;;;12.02;100.00
75933;BME280;64803;52.356;5.310;2023-05-10T04:51:24;101245.19;;;12.05;100.00
75933;BME280;64803;52.356;5.310;2023-05-10T04:53:50;101239.44;;;12.08;100.00
75933;BME280;64803;52.356;5.310;2023-05-10T04:56:16;101254.09;;;12.06;100.00
75933;BME280;64803;52.356;5.310;2023-05-10T04:58:42;101256.63;;;12.07;100.00
75933;BME280;64803;52.356;5.310;2023-05-10T05:01:09;101256.91;;;12.12;100.00
75933;BME280;64803;52.356;5.310;2023-05-10T05:03:36;101227.22;;;11.98;100.00
75933;BME280;64803;52.356;5.310;2023-05-10T05:06:03;101267.00;;;12.10;100.00
75933;BME280;64803;52.356;5.310;2023-05-10T05:08:29;101264.88;;;12.06;100.00
75933;BME280;64803;52.356;5.310;2023-05-10T05:10:55;101262.34;;;12.04;100.00
75933;BME280;64803;52.356;5.310;2023-05-10T05:13:21;101262.00;;;12.07;100.00
75933;BME280;64803;52.356;5.310;2023-05-10T05:15:47;101264.22;;;12.04;100.00
75933;BME280;64803;52.356;5.310;2023-05-10T05:18:13;101273.47;;;12.01;100.00
75933;BME280;64803;52.356;5.310;2023-05-10T05:20:39;101275.09;;;12.10;100.00
75933;BME280;64803;52.356;5.310;2023-05-10T05:23:05;101276.78;;;12.11;100.00
75933;BME280;64803;52.356;5.310;2023-05-10T05:25:31;101279.13;;;12.14;100.00
75933;BME280;64803;52.356;5.310;2023-05-10T05:27:57;101273.44;;;12.09;100.00
75933;BME280;64803;52.356;5.310;2023-05-10T05:30:23;101282.47;;;12.16;100.00
75933;BME280;64803;52.356;5.310;2023-05-10T05:32:49;101283.84;;;12.12;100.00
75933;BME280;64803;52.356;5.310;2023-05-10T05:35:15;101281.81;;;12.14;100.00
75933;BME280;64803;52.356;5.310;2023-05-10T05:37:41;101290.06;;;12.13;100.00
75933;BME280;64803;52.356;5.310;2023-05-10T05:40:08;101284.56;;;12.06;100.00
75933;BME280;64803;52.356;5.310;2023-05-10T05:42:34;101291.56;;;12.15;100.00
75933;BME280;64803;52.356;5.310;2023-05-10T05:45:00;101296.13;;;12.15;100.00
75933;BME280;64803;52.356;5.310;2023-05-10T05:47:26;101295.75;;;12.18;100.00
75933;BME280;64803;52.356;5.310;2023-05-10T05:49:52;101283.78;;;12.20;100.00
75933;BME280;64803;52.356;5.310;2023-05-10T05:52:18;101302.28;;;12.23;100.00
75933;BME280;64803;52.356;5.310;2023-05-10T05:54:44;101301.94;;;12.26;100.00
75933;BME280;64803;52.356;5.310;2023-05-10T05:57:10;101307.09;;;12.36;100.00
75933;BME280;64803;52.356;5.310;2023-05-10T05:59:35;101309.66;;;12.29;100.00
75933;BME280;64803;52.356;5.310;2023-05-10T06:02:02;101310.31;;;12.31;100.00
75933;BME280;64803;52.356;5.310;2023-05-10T06:04:28;101323.47;;;12.26;100.00
75933;BME280;64803;52.356;5.310;2023-05-10T06:06:54;101312.03;;;12.24;100.00
75933;BME280;64803;52.356;5.310;2023-05-10T06:09:20;101316.06;;;12.28;100.00
75933;BME280;64803;52.356;5.310;2023-05-10T06:11:46;101320.78;;;12.26;100.00
75933;BME280;64803;52.356;5.310;2023-05-10T06:14:12;101317.25;;;12.26;100.00
75933;BME280;64803;52.356;5.310;2023-05-10T06:16:38;101309.69;;;12.21;100.00
75933;BME280;64803;52.356;5.310;2023-05-10T06:19:04;101326.09;;;12.34;100.00
75933;BME280;64803;52.356;5.310;2023-05-10T06:21:31;101320.41;;;12.29;100.00
75933;BME280;64803;52.356;5.310;2023-05-10T06:23:57;101330.03;;;12.24;100.00
75933;BME280;64803;52.356;5.310;2023-05-10T06:26:23;101330.22;;;12.22;100.00
75933;BME280;64803;52.356;5.310;2023-05-10T06:28:49;101332.22;;;12.28;100.00
75933;BME280;64803;52.356;5.310;2023-05-10T06:31:15;101336.88;;;12.34;100.00
75933;BME280;64803;52.356;5.310;2023-05-10T06:33:41;101335.34;;;12.40;100.00
75933;BME280;64803;52.356;5.310;2023-05-10T06:36:07;101336.84;;;12.42;100.00
75933;BME280;64803;52.356;5.310;2023-05-10T06:38:33;101335.50;;;12.38;100.00
75933;BME280;64803;52.356;5.310;2023-05-10T06:40:59;101338.16;;;12.46;100.00
75933;BME280;64803;52.356;5.310;2023-05-10T06:43:26;101338.09;;;12.55;100.00
75933;BME280;64803;52.356;5.310;2023-05-10T06:45:54;101333.69;;;12.62;100.00
75933;BME280;64803;52.356;5.310;2023-05-10T06:48:20;101339.84;;;12.70;100.00
75933;BME280;64803;52.356;5.310;2023-05-10T06:50:46;101339.38;;;12.67;100.00
75933;BME280;64803;52.356;5.310;2023-05-10T06:53:12;101337.53;;;12.67;100.00
75933;BME280;64803;52.356;5.310;2023-05-10T06:55:39;101337.53;;;12.67;100.00
75933;BME280;64803;52.356;5.310;2023-05-10T06:58:05;101351.50;;;12.63;100.00
75933;BME280;64803;52.356;5.310;2023-05-10T07:00:31;101345.41;;;12.69;100.00
75933;BME280;64803;52.356;5.310;2023-05-10T07:02:57;101349.41;;;12.73;100.00
75933;BME280;64803;52.356;5.310;2023-05-10T07:05:24;101341.41;;;12.87;100.00
75933;BME280;64803;52.356;5.310;2023-05-10T07:07:50;101349.47;;;12.87;100.00
75933;BME280;64803;52.356;5.310;2023-05-10T07:10:16;101357.19;;;12.90;100.00
75933;BME280;64803;52.356;5.310;2023-05-10T07:12:42;101358.13;;;12.83;100.00
75933;BME280;64803;52.356;5.310;2023-05-10T07:15:08;101361.34;;;12.78;100.00
75933;BME280;64803;52.356;5.310;2023-05-10T07:17:34;101358.78;;;12.85;100.00
75933;BME280;64803;52.356;5.310;2023-05-10T07:20:01;101363.13;;;12.86;100.00
75933;BME280;64803;52.356;5.310;2023-05-10T07:22:27;101360.03;;;12.97;100.00
75933;BME280;64803;52.356;5.310;2023-05-10T07:24:53;101361.31;;;13.01;100.00
75933;BME280;64803;52.356;5.310;2023-05-10T07:27:19;101362.31;;;13.08;100.00
75933;BME280;64803;52.356;5.310;2023-05-10T07:29:45;101359.09;;;13.12;100.00
75933;BME280;64803;52.356;5.310;2023-05-10T07:32:11;101360.13;;;13.26;100.00
75933;BME280;64803;52.356;5.310;2023-05-10T07:34:37;101354.25;;;13.22;100.00
75933;BME280;64803;52.356;5.310;2023-05-10T07:37:03;101363.63;;;13.12;100.00
75933;BME280;64803;52.356;5.310;2023-05-10T07:39:29;101370.22;;;13.09;100.00
75933;BME280;64803;52.356;5.310;2023-05-10T07:41:55;101373.75;;;13.10;100.00
75933;BME280;64803;52.356;5.310;2023-05-10T07:44:22;101376.44;;;13.10;100.00
75933;BME280;64803;52.356;5.310;2023-05-10T07:46:48;101387.63;;;13.07;100.00
75933;BME280;64803;52.356;5.310;2023-05-10T07:49:15;101384.03;;;13.14;100.00
75933;BME280;64803;52.356;5.310;2023-05-10T07:51:41;101373.94;;;13.08;100.00
75933;BME280;64803;52.356;5.310;2023-05-10T07:54:08;101387.72;;;13.13;100.00
75933;BME280;64803;52.356;5.310;2023-05-10T07:56:34;101386.72;;;13.29;100.00
75933;BME280;64803;52.356;5.310;2023-05-10T07:59:02;101386.97;;;13.42;100.00
75933;BME280;64803;52.356;5.310;2023-05-10T08:01:31;101388.25;;;13.46;100.00
75933;BME280;64803;52.356;5.310;2023-05-10T08:03:58;101392.50;;;13.63;100.00
75933;BME280;64803;52.356;5.310;2023-05-10T08:06:24;101392.00;;;13.74;100.00
75933;BME280;64803;52.356;5.310;2023-05-10T08:08:52;101396.97;;;13.85;100.00
75933;BME280;64803;52.356;5.310;2023-05-10T08:11:20;101394.53;;;13.76;100.00
75933;BME280;64803;52.356;5.310;2023-05-10T08:13:47;101403.19;;;13.71;100.00
75933;BME280;64803;52.356;5.310;2023-05-10T08:16:13;101404.75;;;13.66;100.00
75933;BME280;64803;52.356;5.310;2023-05-10T08:18:39;101407.66;;;13.64;100.00
75933;BME280;64803;52.356;5.310;2023-05-10T08:21:06;101384.66;;;13.53;100.00
75933;BME280;64803;52.356;5.310;2023-05-10T08:23:32;101409.91;;;13.75;100.00
75933;BME280;64803;52.356;5.310;2023-05-10T08:25:59;101415.84;;;13.85;100.00
75933;BME280;64803;52.356;5.310;2023-05-10T08:28:25;101418.66;;;13.77;100.00
75933;BME280;64803;52.356;5.310;2023-05-10T08:30:51;101426.91;;;13.76;100.00
75933;BME280;64803;52.356;5.310;2023-05-10T08:33:19;101422.53;;;13.60;100.00
75933;BME280;64803;52.356;5.310;2023-05-10T08:35:45;101424.41;;;13.74;100.00
75933;BME280;64803;52.356;5.310;2023-05-10T08:38:11;101423.50;;;13.82;100.00
75933;BME280;64803;52.356;5.310;2023-05-10T08:40:41;101431.41;;;13.83;100.00
75933;BME280;64803;52.356;5.310;2023-05-10T08:43:10;101428.53;;;13.99;100.00
75933;BME280;64803;52.356;5.310;2023-05-10T08:45:38;101432.44;;;14.11;100.00
75933;BME280;64803;52.356;5.310;2023-05-10T08:48:09;101424.34;;;14.40;100.00
75933;BME280;64803;52.356;5.310;2023-05-10T08:50:37;101427.97;;;14.47;100.00
75933;BME280;64803;52.356;5.310;2023-05-10T08:53:13;101433.81;;;14.65;100.00
75933;BME280;64803;52.356;5.310;2023-05-10T08:55:40;101442.78;;;14.51;100.00
75933;BME280;64803;52.356;5.310;2023-05-10T08:58:08;101441.44;;;14.62;100.00
75933;BME280;64803;52.356;5.310;2023-05-10T09:00:35;101430.47;;;14.85;100.00
75933;BME280;64803;52.356;5.310;2023-05-10T09:03:03;101444.69;;;15.29;100.00
75933;BME280;64803;52.356;5.310;2023-05-10T09:05:30;101434.56;;;15.58;100.00
75933;BME280;64803;52.356;5.310;2023-05-10T09:07:56;101434.75;;;15.15;100.00
75933;BME280;64803;52.356;5.310;2023-05-10T09:10:22;101442.72;;;15.02;100.00
75933;BME280;64803;52.356;5.310;2023-05-10T09:12:52;101434.88;;;15.07;100.00
75933;BME280;64803;52.356;5.310;2023-05-10T09:15:18;101445.69;;;15.07;100.00
75933;BME280;64803;52.356;5.310;2023-05-10T09:17:45;101440.47;;;15.05;100.00
75933;BME280;64803;52.356;5.310;2023-05-10T09:20:11;101438.38;;;15.22;100.00
75933;BME280;64803;52.356;5.310;2023-05-10T09:22:38;101441.09;;;15.43;100.00
75933;BME280;64803;52.356;5.310;2023-05-10T09:25:09;101439.53;;;15.34;100.00
75933;BME280;64803;52.356;5.310;2023-05-10T09:27:38;101423.13;;;15.00;100.00
75933;BME280;64803;52.356;5.310;2023-05-10T09:30:05;101452.19;;;15.12;100.00
75933;BME280;64803;52.356;5.310;2023-05-10T09:35:17;101461.91;;;15.07;100.00
75933;BME280;64803;52.356;5.310;2023-05-10T09:37:48;101462.44;;;15.17;100.00
75933;BME280;64803;52.356;5.310;2023-05-10T09:40:16;101462.31;;;15.25;100.00
75933;BME280;64803;52.356;5.310;2023-05-10T09:43:11;101476.41;;;15.20;100.00
75933;BME280;64803;52.356;5.310;2023-05-10T09:45:36;101467.94;;;15.23;100.00
75933;BME280;64803;52.356;5.310;2023-05-10T09:48:03;101471.47;;;15.24;100.00
75933;BME280;64803;52.356;5.310;2023-05-10T09:50:29;101457.69;;;15.40;100.00
75933;BME280;64803;52.356;5.310;2023-05-10T09:52:57;101472.97;;;15.47;100.00
75933;BME280;64803;52.356;5.310;2023-05-10T09:55:40;101468.00;;;15.51;100.00
75933;BME280;64803;52.356;5.310;2023-05-10T09:58:07;101484.00;;;15.46;100.00
75933;BME280;64803;52.356;5.310;2023-05-10T10:00:41;101456.25;;;15.23;100.00
75933;BME280;64803;52.356;5.310;2023-05-10T10:03:16;101476.09;;;15.09;100.00
75933;BME280;64803;52.356;5.310;2023-05-10T10:05:43;101482.28;;;15.03;100.00
75933;BME280;64803;52.356;5.310;2023-05-10T10:08:10;101477.78;;;15.10;100.00
75933;BME280;64803;52.356;5.310;2023-05-10T10:10:36;101486.16;;;15.15;100.00
75933;BME280;64803;52.356;5.310;2023-05-10T10:13:02;101486.00;;;15.02;100.00
75933;BME280;64803;52.356;5.310;2023-05-10T10:15:28;101478.03;;;14.94;100.00
75933;BME280;64803;52.356;5.310;2023-05-10T10:17:54;101490.88;;;14.92;100.00
75933;BME280;64803;52.356;5.310;2023-05-10T10:20:22;101495.91;;;14.95;100.00
75933;BME280;64803;52.356;5.310;2023-05-10T10:22:48;101494.97;;;15.02;100.00
75933;BME280;64803;52.356;5.310;2023-05-10T10:25:16;101501.56;;;15.14;100.00
75933;BME280;64803;52.356;5.310;2023-05-10T10:30:45;101500.47;;;15.30;100.00
75933;BME280;64803;52.356;5.310;2023-05-10T10:36:06;101498.06;;;15.84;100.00
75933;BME280;64803;52.356;5.310;2023-05-10T10:38:59;101490.09;;;16.03;100.00
75933;BME280;64803;52.356;5.310;2023-05-10T10:41:48;101492.59;;;15.77;100.00
75933;BME280;64803;52.356;5.310;2023-05-10T10:44:44;101494.41;;;15.70;100.00
75933;BME280;64803;52.356;5.310;2023-05-10T10:57:28;101490.31;;;16.76;100.00
75933;BME280;64803;52.356;5.310;2023-05-10T11:02:57;101501.59;;;16.80;100.00
75933;BME280;64803;52.356;5.310;2023-05-10T11:05:25;101501.97;;;16.70;100.00
75933;BME280;64803;52.356;5.310;2023-05-10T11:07:59;101505.78;;;16.42;100.00
75933;BME280;64803;52.356;5.310;2023-05-10T11:10:27;101515.06;;;16.26;100.00
75933;BME280;64803;52.356;5.310;2023-05-10T11:13:04;101508.44;;;16.35;100.00
75933;BME280;64803;52.356;5.310;2023-05-10T11:17:58;101510.13;;;16.36;100.00
75933;BME280;64803;52.356;5.310;2023-05-10T11:20:27;101503.69;;;16.10;100.00
75933;BME280;64803;52.356;5.310;2023-05-10T11:23:11;101509.31;;;16.08;100.00
75933;BME280;64803;52.356;5.310;2023-05-10T11:25:42;101507.03;;;15.84;100.00
75933;BME280;64803;52.356;5.310;2023-05-10T11:28:12;101484.66;;;15.48;100.00
75933;BME280;64803;52.356;5.310;2023-05-10T11:30:39;101512.75;;;15.47;100.00
75933;BME280;64803;52.356;5.310;2023-05-10T11:33:07;101511.13;;;15.52;100.00
75933;BME280;64803;52.356;5.310;2023-05-10T11:35:37;101516.31;;;15.33;100.00
75933;BME280;64803;52.356;5.310;2023-05-10T11:38:08;101516.06;;;15.28;100.00
75933;BME280;64803;52.356;5.310;2023-05-10T11:40:35;101516.88;;;15.43;100.00
75933;BME280;64803;52.356;5.310;2023-05-10T11:43:02;101516.59;;;15.59;100.00
75933;BME280;64803;52.356;5.310;2023-05-10T11:45:29;101521.66;;;15.62;100.00
75933;BME280;64803;52.356;5.310;2023-05-10T11:47:58;101519.03;;;15.75;100.00
75933;BME280;64803;52.356;5.310;2023-05-10T11:50:24;101515.00;;;15.92;100.00
75933;BME280;64803;52.356;5.310;2023-05-10T11:52:52;101526.28;;;16.23;100.00
75933;BME280;64803;52.356;5.310;2023-05-10T11:55:19;101523.38;;;16.52;100.00
75933;BME280;64803;52.356;5.310;2023-05-10T11:57:45;101523.44;;;16.65;100.00
75933;BME280;64803;52.356;5.310;2023-05-10T12:00:13;101528.63;;;16.60;100.00
75933;BME280;64803;52.356;5.310;2023-05-10T12:02:41;101525.31;;;16.65;100.00
75933;BME280;64803;52.356;5.310;2023-05-10T12:05:08;101528.44;;;16.34;100.00
75933;BME280;64803;52.356;5.310;2023-05-10T12:07:35;101533.44;;;16.31;100.00
75933;BME280;64803;52.356;5.310;2023-05-10T12:15:12;101535.91;;;15.98;100.00
75933;BME280;64803;52.356;5.310;2023-05-10T12:17:39;101536.25;;;16.16;100.00
75933;BME280;64803;52.356;5.310;2023-05-10T12:20:18;101540.19;;;16.41;100.00
75933;BME280;64803;52.356;5.310;2023-05-10T12:22:53;101536.94;;;16.52;100.00
75933;BME280;64803;52.356;5.310;2023-05-10T12:25:21;101536.50;;;16.49;100.00
75933;BME280;64803;52.356;5.310;2023-05-10T12:27:54;101537.63;;;16.33;100.00
75933;BME280;64803;52.356;5.310;2023-05-10T12:30:25;101546.13;;;16.30;100.00
75933;BME280;64803;52.356;5.310;2023-05-10T12:32:52;101541.94;;;16.21;100.00
75933;BME280;64803;52.356;5.310;2023-05-10T12:35:18;101541.66;;;16.16;100.00
75933;BME280;64803;52.356;5.310;2023-05-10T12:37:52;101534.16;;;16.18;100.00
75933;BME280;64803;52.356;5.310;2023-05-10T12:40:18;101509.91;;;16.04;100.00
75933;BME280;64803;52.356;5.310;2023-05-10T12:42:44;101526.09;;;15.97;100.00
75933;BME280;64803;52.356;5.310;2023-05-10T12:45:11;101538.88;;;16.03;100.00
75933;BME280;64803;52.356;5.310;2023-05-10T12:47:37;101542.25;;;16.12;100.00
75933;BME280;64803;52.356;5.310;2023-05-10T12:50:04;101526.88;;;16.19;100.00
75933;BME280;64803;52.356;5.310;2023-05-10T12:52:31;101539.03;;;16.50;100.00
75933;BME280;64803;52.356;5.310;2023-05-10T12:54:58;101544.69;;;16.55;100.00
75933;BME280;64803;52.356;5.310;2023-05-10T12:57:25;101548.72;;;16.72;100.00
75933;BME280;64803;52.356;5.310;2023-05-10T12:59:51;101521.13;;;16.62;100.00
75933;BME280;64803;52.356;5.310;2023-05-10T13:02:17;101548.63;;;16.94;100.00
75933;BME280;64803;52.356;5.310;2023-05-10T13:04:47;101548.94;;;17.25;100.00
75933;BME280;64803;52.356;5.310;2023-05-10T13:07:13;101541.88;;;17.37;100.00
75933;BME280;64803;52.356;5.310;2023-05-10T13:09:39;101553.66;;;17.70;100.00
75933;BME280;64803;52.356;5.310;2023-05-10T13:12:05;101550.09;;;17.63;100.00
75933;BME280;64803;52.356;5.310;2023-05-10T13:14:31;101561.09;;;17.42;100.00
75933;BME280;64803;52.356;5.310;2023-05-10T13:16:58;101557.09;;;17.25;100.00
75933;BME280;64803;52.356;5.310;2023-05-10T13:19:24;101559.25;;;16.88;100.00
75933;BME280;64803;52.356;5.310;2023-05-10T13:21:50;101555.56;;;17.03;100.00
75933;BME280;64803;52.356;5.310;2023-05-10T13:24:16;101564.00;;;17.34;100.00
75933;BME280;64803;52.356;5.310;2023-05-10T13:26:43;101555.75;;;17.87;100.00
75933;BME280;64803;52.356;5.310;2023-05-10T13:29:09;101560.16;;;17.95;100.00
75933;BME280;64803;52.356;5.310;2023-05-10T13:31:35;101562.88;;;17.69;100.00